This is the latest recevied weather packets stored in our database for station/object 9A3SWO. If no packets are shown the sender has not sent any weather packets the latest 10 day(s).
| Time | Temp. | Humidity | Pressure | Rain* | Wind** | Luminosity | Snow |
|---|---|---|---|---|---|---|---|
| 1787498282 | 26.67° C | 37% | 1020.8 hPa | - | - | - | - |
| 1787497683 | 26.67° C | 36% | 1020.6 hPa | - | - | - | - |
| 1787497081 | 26.67° C | 37% | 1020.7 hPa | - | - | - | - |
| 1787496482 | 26.67° C | 37% | 1020.5 hPa | - | - | - | - |
| 1787495882 | 25.56° C | 38% | 1020.7 hPa | - | - | - | - |
| 1787495282 | 26.11° C | 38% | 1020.6 hPa | - | - | - | - |
| 1787494682 | 25.56° C | 38% | 1020.6 hPa | - | - | - | - |
| 1787494081 | 26.11° C | 38% | 1020.6 hPa | - | - | - | - |
| 1787493481 | 26.11° C | 38% | 1020.6 hPa | - | - | - | - |
| 1787492881 | 25.56° C | 40% | 1020.7 hPa | - | - | - | - |
| 1787492281 | 25.56° C | 39% | 1021 hPa | - | - | - | - |
| 1787491681 | 26.67° C | 40% | 1020.8 hPa | - | - | - | - |
| 1787491082 | 25.56° C | 38% | 1021 hPa | - | - | - | - |
| 1787490481 | 24.44° C | 42% | 1021.1 hPa | - | - | - | - |
| 1787489881 | 24.44° C | 41% | 1021.1 hPa | - | - | - | - |
| 1787489281 | 26.11° C | 38% | 1021.1 hPa | - | - | - | - |
| 1787488681 | 24.44° C | 40% | 1021.4 hPa | - | - | - | - |
| 1787488081 | 24.44° C | 41% | 1021.5 hPa | - | - | - | - |
| 1787487481 | 24.44° C | 41% | 1021.6 hPa | - | - | - | - |
| 1787486881 | 24.44° C | 44% | 1021.6 hPa | - | - | - | - |
| 1787486281 | 25° C | 45% | 1021.7 hPa | - | - | - | - |
| 1787485681 | 23.89° C | 47% | 1022 hPa | - | - | - | - |
| 1787485081 | 24.44° C | 47% | 1022 hPa | - | - | - | - |
| 1787484482 | 25° C | 45% | 1022 hPa | - | - | - | - |
| 1787483882 | 23.89° C | 49% | 1022.2 hPa | - | - | - | - |
* Rain since midnight (hover to see other rain measurements)
** Current wind speed in m/s (hover to see current wind gust speed)